Time;durP1;ratioP1;P1;durP2;ratioP2;P2;SDS_P1;SDS_P2;PMS_P1;PMS_P2;Temp;Humidity;BMP_temperature;BMP_pressure;BME280_temperature;BME280_humidity;BME280_pressure;Samples;Min_cycle;Max_cycle;Signal;HPM_P1;HPM_P2
2021/12/19 00:09:32;;;;;;;10.03;9.53;;;6.30;78.00;;;;;;5012969;28;20384;-79
2021/12/19 00:11:58;;;;;;;10.83;10.27;;;6.30;78.10;;;;;;5010445;28;20522;-78
2021/12/19 00:14:24;;;;;;;10.57;10.07;;;6.30;78.10;;;;;;4992605;28;20053;-78
2021/12/19 00:16:54;;;;;;;9.60;9.10;;;6.30;78.10;;;;;;4992607;28;20038;-78
2021/12/19 00:19:20;;;;;;;9.50;9.10;;;6.30;78.20;;;;;;5009691;28;20033;-78
2021/12/19 00:21:46;;;;;;;9.73;9.27;;;6.20;78.10;;;;;;5009392;28;20037;-78
2021/12/19 00:24:12;;;;;;;10.67;9.93;;;6.20;78.10;;;;;;5008107;28;20037;-79
2021/12/19 00:26:39;;;;;;;9.60;9.20;;;6.20;78.20;;;;;;5010166;28;20470;-78
2021/12/19 00:29:05;;;;;;;10.13;9.63;;;6.20;78.20;;;;;;4975212;28;20506;-79
2021/12/19 00:31:31;;;;;;;11.47;10.73;;;6.20;78.20;;;;;;4992396;28;20038;-78
2021/12/19 00:33:57;;;;;;;9.53;9.07;;;6.20;78.30;;;;;;4993671;28;20038;-78
2021/12/19 00:36:23;;;;;;;9.90;9.40;;;6.20;78.30;;;;;;5009672;28;20029;-79
2021/12/19 00:38:50;;;;;;;9.80;9.30;;;6.20;78.30;;;;;;4994022;28;20026;-78
2021/12/19 00:41:16;;;;;;;10.50;9.93;;;6.20;78.30;;;;;;4995255;28;20025;-78
2021/12/19 00:46:08;;;;;;;10.00;9.50;;;6.20;78.30;;;;;;5009949;28;20038;-78
2021/12/19 00:48:39;;;;;;;11.67;10.63;;;6.20;78.30;;;;;;5008393;28;20033;-78
2021/12/19 00:51:06;;;;;;;9.68;9.18;;;6.20;78.30;;;;;;5011211;28;20034;-78
2021/12/19 00:53:32;;;;;;;10.53;10.03;;;6.10;78.30;;;;;;5009946;28;20036;-78
2021/12/19 00:55:58;;;;;;;11.30;10.77;;;6.10;78.40;;;;;;4994623;28;20059;-78
2021/12/19 00:58:24;;;;;;;10.93;10.33;;;6.10;78.30;;;;;;5009393;28;20479;-78
2021/12/19 01:00:50;;;;;;;10.60;10.10;;;6.10;78.40;;;;;;5009889;28;20034;-78
2021/12/19 01:03:17;;;;;;;9.47;9.03;;;6.10;78.40;;;;;;4993432;28;20034;-78
2021/12/19 01:05:43;;;;;;;9.67;9.23;;;6.10;78.40;;;;;;4993426;28;20046;-78
2021/12/19 01:08:11;;;;;;;10.50;10.00;;;6.10;78.40;;;;;;4991052;28;20035;-78
2021/12/19 01:10:38;;;;;;;9.10;8.60;;;6.10;78.40;;;;;;5009353;28;20054;-79
2021/12/19 01:13:04;;;;;;;9.60;9.20;;;6.10;78.50;;;;;;4992657;28;20045;-78
2021/12/19 01:15:30;;;;;;;9.40;9.00;;;6.10;78.50;;;;;;5009294;28;20041;-78
2021/12/19 01:17:56;;;;;;;10.33;9.73;;;6.10;78.50;;;;;;5009162;28;20034;-78
2021/12/19 01:20:23;;;;;;;10.23;9.67;;;6.00;78.50;;;;;;5010735;28;20026;-78
2021/12/19 01:22:50;;;;;;;10.37;9.83;;;6.00;78.60;;;;;;5009544;28;20391;-78
2021/12/19 01:25:16;;;;;;;10.37;9.87;;;6.00;78.60;;;;;;5009335;28;20052;-78
2021/12/19 01:27:42;;;;;;;10.77;10.17;;;6.00;78.70;;;;;;5007427;28;20030;-78
2021/12/19 01:30:09;;;;;;;10.13;9.40;;;6.00;78.60;;;;;;4990308;28;20407;-78
2021/12/19 01:32:35;;;;;;;11.07;10.33;;;6.00;78.60;;;;;;5008875;28;20041;-78
2021/12/19 01:35:01;;;;;;;10.23;9.73;;;6.00;78.60;;;;;;4994526;28;20041;-78
2021/12/19 01:37:28;;;;;;;9.63;9.17;;;6.00;78.60;;;;;;5008725;28;20034;-78
2021/12/19 01:39:54;;;;;;;10.17;9.67;;;6.00;78.70;;;;;;5008952;28;20379;-78
2021/12/19 01:42:20;;;;;;;9.23;8.83;;;6.00;78.70;;;;;;5011267;28;20029;-78
2021/12/19 01:44:47;;;;;;;9.67;9.17;;;6.00;78.70;;;;;;5012506;28;20037;-78
2021/12/19 01:47:14;;;;;;;11.00;10.40;;;5.90;78.70;;;;;;5014191;28;20037;-78
2021/12/19 01:49:40;;;;;;;10.57;9.97;;;5.90;78.80;;;;;;5013832;28;20037;-78
2021/12/19 01:52:06;;;;;;;10.23;9.50;;;5.90;78.80;;;;;;5010390;28;20045;-78
2021/12/19 01:54:32;;;;;;;10.63;10.00;;;5.90;78.80;;;;;;5012371;28;20041;-78
2021/12/19 01:56:58;;;;;;;10.03;9.53;;;5.90;78.90;;;;;;5011147;28;20038;-78
2021/12/19 01:59:24;;;;;;;11.10;10.43;;;5.90;78.90;;;;;;4997719;28;20053;-78
2021/12/19 02:01:52;;;;;;;10.67;10.07;;;5.90;78.90;;;;;;5012268;28;20034;-78
2021/12/19 02:04:19;;;;;;;11.77;10.73;;;5.90;78.90;;;;;;5013964;28;20049;-78
2021/12/19 02:06:45;;;;;;;10.63;10.03;;;5.90;78.90;;;;;;5010627;28;20451;-78
2021/12/19 02:09:11;;;;;;;9.53;9.07;;;5.90;78.90;;;;;;4993912;28;20064;-78
2021/12/19 02:11:39;;;;;;;9.23;8.83;;;5.90;78.90;;;;;;5012409;28;20030;-78
2021/12/19 02:14:06;;;;;;;11.10;10.50;;;5.90;78.90;;;;;;4997472;28;20025;-78
2021/12/19 02:16:32;;;;;;;10.20;9.70;;;5.80;78.90;;;;;;5010608;28;20050;-78
2021/12/19 02:18:58;;;;;;;8.90;8.50;;;5.80;79.00;;;;;;5012132;28;20022;-78
2021/12/19 02:21:24;;;;;;;9.40;9.00;;;5.80;79.00;;;;;;4993349;28;20038;-78
2021/12/19 02:23:50;;;;;;;9.57;9.07;;;5.70;79.10;;;;;;5012340;28;20030;-78
2021/12/19 02:26:17;;;;;;;9.37;8.97;;;5.80;79.20;;;;;;4978179;28;20498;-78
2021/12/19 02:28:43;;;;;;;10.30;9.57;;;5.70;79.10;;;;;;4995458;28;20482;-78
2021/12/19 02:31:09;;;;;;;10.13;9.23;;;5.70;79.30;;;;;;5011594;28;20376;-78
2021/12/19 02:33:40;;;;;;;10.20;9.70;;;5.60;79.30;;;;;;4995011;28;20041;-78
2021/12/19 02:49:25;;;;;;;10.13;9.63;;;5.60;79.80;;;;;;5008354;28;20505;-78
2021/12/19 02:51:52;;;;;;;9.53;9.03;;;5.50;79.70;;;;;;5010579;28;20509;-78
2021/12/19 02:54:18;;;;;;;10.93;10.43;;;5.50;79.80;;;;;;5012817;28;20026;-78
2021/12/19 02:56:44;;;;;;;12.70;12.10;;;5.50;79.80;;;;;;5011525;28;20037;-78
2021/12/19 02:59:10;;;;;;;10.00;9.50;;;5.50;79.80;;;;;;5013730;28;20026;-78
2021/12/19 03:01:37;;;;;;;10.63;10.03;;;5.50;79.80;;;;;;5009666;28;20030;-78
2021/12/19 03:04:03;;;;;;;8.93;8.43;;;5.50;79.80;;;;;;4989747;28;20041;-78
2021/12/19 03:06:29;;;;;;;8.90;8.50;;;5.50;79.80;;;;;;4999343;28;20045;-78
2021/12/19 03:08:58;;;;;;;9.13;8.73;;;5.50;79.80;;;;;;5008878;28;20026;-78
2021/12/19 03:19:38;;;;;;;10.47;9.87;;;5.50;79.80;;;;;;5011694;28;20037;-78
2021/12/19 03:22:04;;;;;;;10.33;9.80;;;5.50;79.80;;;;;;5010411;28;20040;-78
2021/12/19 03:24:30;;;;;;;8.23;7.83;;;5.50;79.80;;;;;;5006051;28;20026;-78
2021/12/19 03:26:56;;;;;;;8.70;8.17;;;5.50;79.80;;;;;;5010474;28;20850;-78
2021/12/19 03:29:22;;;;;;;10.47;9.97;;;5.40;79.80;;;;;;5011912;28;20041;-78
2021/12/19 03:31:48;;;;;;;8.17;7.77;;;5.50;79.80;;;;;;5009923;28;20419;-77
2021/12/19 03:34:14;;;;;;;8.80;8.30;;;5.50;79.80;;;;;;5009364;28;20049;-78
2021/12/19 03:36:41;;;;;;;11.23;10.63;;;5.50;79.80;;;;;;5010194;28;20049;-78
2021/12/19 03:39:14;;;;;;;8.93;8.43;;;5.50;79.80;;;;;;5012168;28;20053;-78
2021/12/19 03:41:41;;;;;;;7.83;7.43;;;5.50;79.80;;;;;;4994971;28;20038;-78
2021/12/19 03:44:08;;;;;;;13.87;13.17;;;5.50;79.80;;;;;;5010774;28;20067;-78
2021/12/19 03:46:35;;;;;;;20.83;19.73;;;5.50;79.90;;;;;;5009811;28;20109;-78
2021/12/19 03:49:01;;;;;;;8.63;8.20;;;5.50;80.00;;;;;;5010260;28;20030;-78
2021/12/19 03:51:27;;;;;;;12.17;9.40;;;5.50;80.10;;;;;;5009996;28;20052;-78
2021/12/19 03:53:53;;;;;;;7.43;7.13;;;5.50;80.20;;;;;;5010472;28;20042;-78
2021/12/19 03:56:19;;;;;;;7.13;6.73;;;5.40;80.30;;;;;;5012406;28;20467;-78
2021/12/19 03:58:46;;;;;;;7.67;7.27;;;5.40;81.30;;;;;;5010485;28;20033;-78
2021/12/19 04:01:12;;;;;;;7.17;6.87;;;5.50;80.70;;;;;;5009285;28;20044;-78
2021/12/19 04:03:38;;;;;;;8.23;7.83;;;5.50;80.70;;;;;;5008402;28;20041;-78
2021/12/19 04:06:04;;;;;;;8.20;7.80;;;5.50;80.80;;;;;;4992396;28;20034;-78
2021/12/19 04:08:30;;;;;;;9.83;9.13;;;5.50;80.90;;;;;;5011211;28;20045;-78
2021/12/19 04:10:56;;;;;;;9.43;8.87;;;5.50;81.00;;;;;;5012404;28;20045;-78
2021/12/19 04:13:23;;;;;;;8.67;8.27;;;5.50;81.10;;;;;;5010409;28;20407;-77
2021/12/19 04:15:49;;;;;;;9.03;8.63;;;5.50;81.10;;;;;;5007658;28;20045;-78
2021/12/19 04:18:15;;;;;;;9.93;9.43;;;5.50;81.20;;;;;;5010163;28;20383;-78
2021/12/19 04:20:41;;;;;;;10.60;10.10;;;5.50;81.20;;;;;;4993450;28;20046;-78
2021/12/19 04:23:08;;;;;;;9.30;8.80;;;5.50;81.30;;;;;;5012921;28;20061;-78
2021/12/19 04:25:34;;;;;;;9.80;9.30;;;5.50;81.40;;;;;;5011177;28;20034;-78
2021/12/19 04:28:00;;;;;;;16.57;15.63;;;5.60;81.60;;;;;;5009932;28;20041;-78
2021/12/19 04:30:26;;;;;;;9.83;9.23;;;5.60;81.70;;;;;;5010185;28;20045;-78
2021/12/19 04:33:02;;;;;;;9.37;8.63;;;5.50;81.90;;;;;;5010939;28;20045;-78
2021/12/19 04:35:31;;;;;;;9.93;9.50;;;5.50;82.00;;;;;;5008682;28;20471;-78
2021/12/19 04:52:13;;;;;;;8.90;8.50;;;5.60;82.50;;;;;;4954014;28;20042;-78
2021/12/19 05:15:31;;;;;;;8.40;8.00;;;5.80;82.80;;;;;;4934690;28;20448;-77
2021/12/19 05:18:02;;;;;;;7.60;7.20;;;5.80;82.80;;;;;;4923933;29;20050;-78
2021/12/19 05:20:29;;;;;;;7.85;7.43;;;5.80;82.80;;;;;;4953344;28;20053;-78
2021/12/19 05:22:58;;;;;;;8.43;8.03;;;5.80;82.80;;;;;;4995513;28;20393;-78
2021/12/19 05:25:24;;;;;;;20.73;19.33;;;5.90;83.00;;;;;;5010269;28;20021;-78
2021/12/19 05:27:53;;;;;;;9.60;9.13;;;5.90;83.00;;;;;;5013355;28;20052;-77
2021/12/19 05:30:19;;;;;;;9.93;9.33;;;5.90;83.20;;;;;;5012174;28;20395;-77
2021/12/19 05:32:47;;;;;;;8.37;7.93;;;5.90;83.20;;;;;;5012576;28;20034;-78
2021/12/19 05:35:16;;;;;;;11.43;10.87;;;5.90;83.30;;;;;;5014728;28;20034;-78
2021/12/19 05:45:56;;;;;;;7.87;7.47;;;5.90;83.40;;;;;;5009190;28;20034;-81
2021/12/19 05:48:22;;;;;;;7.30;7.00;;;6.00;83.50;;;;;;4994563;28;20038;-80
2021/12/19 05:50:48;;;;;;;8.07;7.53;;;6.00;83.50;;;;;;5012448;28;20041;-81
2021/12/19 05:53:15;;;;;;;7.63;7.23;;;6.00;84.30;;;;;;5014630;28;20041;-81
2021/12/19 05:55:41;;;;;;;13.40;12.70;;;6.00;83.60;;;;;;5012684;28;20026;-81
2021/12/19 05:58:07;;;;;;;6.93;6.63;;;6.00;83.50;;;;;;5012222;28;20030;-80
2021/12/19 06:00:34;;;;;;;19.67;18.67;;;6.00;83.60;;;;;;4992636;28;20041;-81
2021/12/19 06:03:01;;;;;;;7.03;6.63;;;6.00;83.60;;;;;;5013663;28;20022;-82
2021/12/19 06:05:27;;;;;;;7.20;6.80;;;6.10;83.70;;;;;;5013249;28;20030;-81
2021/12/19 06:07:53;;;;;;;8.70;8.30;;;6.10;83.70;;;;;;5013073;28;20038;-81
2021/12/19 06:10:20;;;;;;;7.10;6.70;;;6.10;83.60;;;;;;4990883;28;20034;-81
2021/12/19 06:12:47;;;;;;;9.00;8.13;;;6.10;83.60;;;;;;5003494;28;20034;-82
2021/12/19 06:15:13;;;;;;;7.30;6.80;;;6.10;83.60;;;;;;5011979;28;20041;-82
2021/12/19 06:17:40;;;;;;;8.17;7.77;;;6.10;83.60;;;;;;4995615;28;20041;-81
2021/12/19 06:20:07;;;;;;;7.20;6.90;;;6.20;83.70;;;;;;4981691;28;20033;-81
2021/12/19 06:22:33;;;;;;;8.73;8.13;;;6.20;83.70;;;;;;5011910;28;20053;-81
2021/12/19 06:24:59;;;;;;;10.27;9.77;;;6.20;83.80;;;;;;4990715;28;20038;-81
2021/12/19 06:27:25;;;;;;;15.60;14.70;;;6.20;83.80;;;;;;5001738;28;20025;-81
2021/12/19 06:29:51;;;;;;;13.53;12.73;;;6.20;83.90;;;;;;4995987;28;20037;-82
2021/12/19 06:32:18;;;;;;;7.37;7.07;;;6.20;83.90;;;;;;5014151;28;20046;-82
2021/12/19 06:34:44;;;;;;;8.77;8.07;;;6.20;83.80;;;;;;5011548;28;20053;-81
2021/12/19 06:37:10;;;;;;;6.60;6.30;;;6.20;83.70;;;;;;5012082;28;20030;-81
2021/12/19 06:39:38;;;;;;;7.83;7.30;;;6.30;83.70;;;;;;5013203;28;20038;-81
2021/12/19 06:42:05;;;;;;;7.97;7.57;;;6.30;83.70;;;;;;5011356;28;20026;-81
2021/12/19 06:44:31;;;;;;;7.37;7.07;;;6.30;83.70;;;;;;5012896;28;20034;-80
2021/12/19 06:46:58;;;;;;;7.33;7.03;;;6.30;83.70;;;;;;5012149;28;20408;-80
2021/12/19 06:49:24;;;;;;;6.87;6.57;;;6.30;83.70;;;;;;4990032;28;20057;-80
2021/12/19 06:51:50;;;;;;;7.60;7.13;;;6.30;83.70;;;;;;5003577;28;20046;-80
2021/12/19 06:54:16;;;;;;;6.97;6.53;;;6.30;83.70;;;;;;5011575;28;20026;-81
2021/12/19 06:56:42;;;;;;;8.90;8.50;;;6.30;83.70;;;;;;5011585;28;20053;-81
2021/12/19 06:59:08;;;;;;;9.10;8.53;;;6.40;83.80;;;;;;5013097;28;20029;-81
2021/12/19 07:01:36;;;;;;;7.23;6.87;;;6.40;83.70;;;;;;5011087;28;20046;-81
2021/12/19 07:04:03;;;;;;;7.37;7.07;;;6.40;83.70;;;;;;5011647;28;20026;-81
2021/12/19 07:06:29;;;;;;;8.20;7.73;;;6.40;83.60;;;;;;5011434;28;20483;-80
2021/12/19 07:08:55;;;;;;;7.30;6.83;;;6.40;83.60;;;;;;5012561;28;20035;-79
2021/12/19 07:11:21;;;;;;;10.37;9.87;;;6.40;83.60;;;;;;4996054;28;20054;-79
2021/12/19 07:13:47;;;;;;;9.40;8.83;;;6.40;83.70;;;;;;5010294;28;20045;-81
2021/12/19 07:16:13;;;;;;;8.43;7.70;;;6.40;83.60;;;;;;5010782;28;20044;-80
2021/12/19 07:18:39;;;;;;;8.30;7.80;;;6.50;83.70;;;;;;5009402;28;20026;-81
2021/12/19 07:21:06;;;;;;;6.97;6.67;;;6.40;83.60;;;;;;5012708;28;20475;-80
2021/12/19 07:23:32;;;;;;;8.03;7.63;;;6.40;83.60;;;;;;5013120;28;20030;-80
2021/12/19 07:25:59;;;;;;;7.00;6.70;;;6.40;83.70;;;;;;4995445;28;20038;-80
2021/12/19 07:28:25;;;;;;;8.50;8.10;;;6.50;83.80;;;;;;5011142;28;20041;-80
2021/12/19 07:30:51;;;;;;;18.03;17.13;;;6.50;83.70;;;;;;5009143;28;20042;-81
2021/12/19 07:33:19;;;;;;;8.00;7.60;;;6.50;83.70;;;;;;5011473;28;20053;-81
2021/12/19 07:35:48;;;;;;;7.73;7.30;;;6.50;83.70;;;;;;5010958;28;20044;-81
2021/12/19 07:38:22;;;;;;;6.77;6.47;;;6.50;83.70;;;;;;5013210;28;20459;-81
2021/12/19 07:40:50;;;;;;;10.23;9.53;;;6.50;83.70;;;;;;4990766;28;20510;-82
2021/12/19 07:43:16;;;;;;;7.20;6.80;;;6.50;83.60;;;;;;5006667;28;20506;-81
2021/12/19 07:45:43;;;;;;;6.97;6.67;;;6.60;83.60;;;;;;4988256;28;20522;-80
2021/12/19 07:48:09;;;;;;;6.60;6.30;;;6.60;83.50;;;;;;4992345;28;20038;-80
2021/12/19 07:50:35;;;;;;;6.87;6.57;;;6.50;83.40;;;;;;4992484;28;20034;-79
2021/12/19 07:53:03;;;;;;;7.80;7.30;;;6.60;83.60;;;;;;4980505;28;20034;-81
2021/12/19 07:55:29;;;;;;;9.93;9.43;;;6.60;83.60;;;;;;5005529;28;20038;-80
2021/12/19 07:57:55;;;;;;;8.40;8.00;;;6.70;83.90;;;;;;5005070;28;20026;-79
2021/12/19 08:00:21;;;;;;;8.17;7.70;;;6.90;83.80;;;;;;4992349;28;20027;-81
2021/12/19 08:02:48;;;;;;;8.50;8.10;;;6.90;83.60;;;;;;5011375;28;20025;-81
2021/12/19 08:05:15;;;;;;;8.40;8.00;;;7.00;83.50;;;;;;5010601;28;20387;-81
2021/12/19 08:07:43;;;;;;;12.07;11.47;;;7.10;83.60;;;;;;5007190;28;20033;-80
2021/12/19 08:11:39;;;;;;;7.23;6.93;;;7.20;83.50;;;;;;5004116;28;20029;-80
2021/12/19 08:12:59;;;;;;;8.73;8.23;;;7.20;83.70;;;;;;5006994;28;20034;-79
2021/12/19 08:15:25;;;;;;;7.30;6.90;;;7.30;83.70;;;;;;4994716;28;20502;-79
2021/12/19 08:17:51;;;;;;;7.20;6.90;;;7.40;83.60;;;;;;4996961;28;20030;-80
2021/12/19 08:20:17;;;;;;;8.47;8.03;;;7.50;84.30;;;;;;5008004;28;20026;-80
2021/12/19 08:22:45;;;;;;;11.57;8.00;;;7.70;83.30;;;;;;5006391;28;20038;-79
2021/12/19 08:25:12;;;;;;;7.77;7.37;;;7.70;83.20;;;;;;5009520;28;20030;-83
2021/12/19 08:27:38;;;;;;;7.57;7.17;;;7.70;83.20;;;;;;5006426;28;20378;-80
2021/12/19 08:30:05;;;;;;;8.37;7.87;;;7.70;83.30;;;;;;4996539;28;20037;-81
2021/12/19 08:32:31;;;;;;;8.03;7.63;;;7.70;83.10;;;;;;5008318;28;20048;-79
2021/12/19 08:34:57;;;;;;;8.27;7.87;;;7.70;83.00;;;;;;5007108;28;20038;-81
2021/12/19 08:37:23;;;;;;;7.93;7.53;;;7.70;83.60;;;;;;5007516;28;20510;-80
2021/12/19 08:39:49;;;;;;;8.47;8.07;;;7.70;82.70;;;;;;4994024;28;20034;-83
2021/12/19 08:42:15;;;;;;;9.03;8.50;;;7.70;82.80;;;;;;5008107;28;20041;-81
2021/12/19 08:44:41;;;;;;;8.43;8.03;;;7.80;82.70;;;;;;4991146;28;20049;-82
2021/12/19 08:47:07;;;;;;;8.30;7.90;;;7.80;82.40;;;;;;4992672;28;20415;-82
2021/12/19 08:49:34;;;;;;;8.67;7.93;;;7.80;82.50;;;;;;5004419;28;20399;-80
2021/12/19 08:52:01;;;;;;;9.37;8.87;;;7.90;82.20;;;;;;5006023;28;20030;-81
2021/12/19 08:54:28;;;;;;;7.80;7.37;;;7.90;82.00;;;;;;5006108;28;20018;-80
2021/12/19 08:56:54;;;;;;;9.05;8.55;;;7.80;81.80;;;;;;5009261;28;20041;-81
2021/12/19 08:59:20;;;;;;;8.60;8.17;;;7.80;81.80;;;;;;4991106;28;20038;-79
2021/12/19 09:01:47;;;;;;;8.87;8.47;;;7.80;81.70;;;;;;4988016;28;20046;-81
2021/12/19 09:04:14;;;;;;;8.80;8.37;;;7.70;81.70;;;;;;5006620;28;20389;-82
2021/12/19 09:06:40;;;;;;;8.30;7.90;;;7.70;81.70;;;;;;5000241;28;20037;-80
2021/12/19 09:09:06;;;;;;;9.63;9.13;;;7.80;81.70;;;;;;5009027;28;20045;-82
2021/12/19 09:11:33;;;;;;;9.40;9.00;;;7.80;81.50;;;;;;4991280;28;20046;-82
2021/12/19 09:13:59;;;;;;;10.00;9.50;;;7.90;81.50;;;;;;4986264;28;20392;-82
2021/12/19 09:16:26;;;;;;;9.50;9.10;;;7.80;81.10;;;;;;5006378;28;20034;-82
2021/12/19 09:18:52;;;;;;;10.13;9.63;;;7.70;81.10;;;;;;5008286;28;20034;-81
2021/12/19 09:21:18;;;;;;;8.53;8.13;;;7.70;81.10;;;;;;5006317;28;20503;-82
2021/12/19 09:23:44;;;;;;;9.30;8.70;;;7.70;81.20;;;;;;5007925;28;20029;-86
2021/12/19 09:26:11;;;;;;;9.37;8.97;;;7.60;81.10;;;;;;5008505;28;20129;-82
2021/12/19 09:28:37;;;;;;;10.03;9.53;;;7.60;81.10;;;;;;5001293;28;20030;-82
2021/12/19 09:31:07;;;;;;;10.47;9.97;;;7.60;81.10;;;;;;5008871;28;20049;-81
2021/12/19 09:33:33;;;;;;;11.10;10.60;;;7.60;81.00;;;;;;5009097;28;20038;-80
2021/12/19 09:35:59;;;;;;;11.13;10.63;;;7.50;80.90;;;;;;4992135;28;20030;-81
2021/12/19 09:38:26;;;;;;;11.60;10.90;;;7.50;80.70;;;;;;4989301;28;20041;-79
2021/12/19 09:40:59;;;;;;;10.63;10.13;;;7.50;80.60;;;;;;5000597;28;20030;-78
2021/12/19 09:43:41;;;;;;;11.77;11.17;;;7.50;80.60;;;;;;4999024;28;20034;-78
2021/12/19 09:46:12;;;;;;;11.50;10.90;;;7.40;80.50;;;;;;5004950;28;20491;-78
2021/12/19 09:48:39;;;;;;;9.60;9.10;;;7.30;80.40;;;;;;5003333;28;20030;-78
2021/12/19 09:51:07;;;;;;;10.97;10.23;;;7.20;80.40;;;;;;5006152;28;20501;-78
2021/12/19 09:53:33;;;;;;;10.07;9.47;;;7.00;80.50;;;;;;5005983;28;20042;-80
2021/12/19 09:55:59;;;;;;;13.30;11.10;;;7.00;80.80;;;;;;4998617;28;20034;-80
2021/12/19 09:58:26;;;;;;;10.63;10.13;;;6.90;80.70;;;;;;5005764;28;20105;-78
2021/12/19 10:00:53;;;;;;;9.70;9.20;;;6.90;80.80;;;;;;5003713;28;20045;-78
2021/12/19 10:03:20;;;;;;;9.50;9.00;;;6.90;80.70;;;;;;4996104;28;20046;-78
2021/12/19 10:05:46;;;;;;;8.97;8.57;;;6.80;80.50;;;;;;4996166;28;20042;-78
2021/12/19 10:08:12;;;;;;;9.03;8.50;;;6.80;80.50;;;;;;5010274;28;20034;-78
2021/12/19 10:10:53;;;;;;;9.30;8.90;;;6.70;80.50;;;;;;5005797;28;20406;-78
2021/12/19 10:13:34;;;;;;;10.80;10.10;;;6.70;80.50;;;;;;4997874;28;20058;-78
2021/12/19 10:16:00;;;;;;;9.90;9.40;;;6.70;80.50;;;;;;5008863;28;20376;-78
2021/12/19 10:18:26;;;;;;;10.27;9.67;;;6.70;80.40;;;;;;5006199;28;20026;-79
2021/12/19 10:20:59;;;;;;;12.53;11.90;;;6.70;80.30;;;;;;5007472;28;20029;-79
2021/12/19 10:23:32;;;;;;;9.57;9.00;;;6.70;80.40;;;;;;5010191;28;20038;-81
2021/12/19 10:26:06;;;;;;;8.00;7.60;;;6.70;80.20;;;;;;5024794;28;20501;-79
2021/12/19 10:28:32;;;;;;;10.97;10.47;;;6.70;80.20;;;;;;5007246;28;20026;-79
2021/12/19 10:31:00;;;;;;;8.40;8.00;;;6.70;80.10;;;;;;4971906;28;20030;-79
2021/12/19 10:33:28;;;;;;;8.90;8.40;;;6.70;80.10;;;;;;5008010;28;20040;-83
2021/12/19 10:35:55;;;;;;;8.60;8.20;;;6.70;80.10;;;;;;4996928;28;20037;-79
2021/12/19 10:38:44;;;;;;;8.40;8.00;;;6.70;80.20;;;;;;5009504;28;20391;-79
2021/12/19 10:41:17;;;;;;;8.00;7.60;;;6.70;80.00;;;;;;5011657;28;20033;-78
2021/12/19 10:43:57;;;;;;;8.00;7.50;;;6.80;80.00;;;;;;5006758;28;20034;-79
2021/12/19 10:46:30;;;;;;;10.73;8.73;;;6.70;79.90;;;;;;5001215;28;20042;-79
2021/12/19 10:48:57;;;;;;;7.77;7.37;;;6.70;79.90;;;;;;5009344;28;20033;-78
2021/12/19 10:51:24;;;;;;;8.33;7.93;;;6.70;79.80;;;;;;5008740;28;20063;-78
2021/12/19 10:53:52;;;;;;;7.63;7.33;;;6.70;79.80;;;;;;5042507;28;20037;-79
2021/12/19 10:56:32;;;;;;;8.03;7.33;;;6.80;79.80;;;;;;5002448;28;20022;-80
2021/12/19 10:58:59;;;;;;;7.97;7.57;;;6.80;80.30;;;;;;4981440;28;20030;-82
2021/12/19 11:01:30;;;;;;;9.27;8.77;;;6.80;79.80;;;;;;5001799;28;20037;-78
2021/12/19 11:04:09;;;;;;;8.38;7.70;;;6.80;79.70;;;;;;4992332;28;20026;-79
2021/12/19 11:06:37;;;;;;;7.80;7.40;;;6.80;79.60;;;;;;5002478;28;20034;-80
2021/12/19 11:09:16;;;;;;;8.93;8.43;;;6.90;79.80;;;;;;4987306;28;20034;-79
2021/12/19 11:11:43;;;;;;;7.60;7.30;;;6.90;79.70;;;;;;5005427;28;20041;-79
2021/12/19 11:14:11;;;;;;;13.80;13.17;;;6.90;79.60;;;;;;5006281;28;20418;-79
2021/12/19 11:16:37;;;;;;;9.40;8.90;;;6.90;79.60;;;;;;5006184;28;20042;-78
2021/12/19 11:19:04;;;;;;;11.57;9.47;;;6.90;79.40;;;;;;4994771;28;20034;-78
2021/12/19 11:21:35;;;;;;;13.00;12.33;;;6.90;79.40;;;;;;4991762;28;20034;-78
2021/12/19 11:24:02;;;;;;;8.82;8.15;;;6.80;79.40;;;;;;4994171;28;20061;-79
2021/12/19 11:26:28;;;;;;;8.93;8.50;;;6.90;79.50;;;;;;5009697;28;20034;-79
2021/12/19 11:28:55;;;;;;;18.43;17.53;;;6.90;79.50;;;;;;4994714;28;20046;-79
2021/12/19 11:31:21;;;;;;;18.33;17.47;;;6.90;79.40;;;;;;5000702;28;20062;-79
2021/12/19 11:34:04;;;;;;;9.03;8.63;;;6.90;79.40;;;;;;4991920;28;20053;-79
2021/12/19 11:36:32;;;;;;;9.47;8.97;;;6.90;79.30;;;;;;4988658;28;20030;-79
2021/12/19 11:39:03;;;;;;;9.37;8.87;;;6.90;79.30;;;;;;5010495;28;20029;-80
2021/12/19 11:41:31;;;;;;;9.57;8.43;;;6.90;79.30;;;;;;5001645;28;20018;-79
2021/12/19 11:44:00;;;;;;;10.00;9.50;;;6.90;79.30;;;;;;4998393;28;20038;-79
2021/12/19 11:46:54;;;;;;;9.43;8.93;;;6.90;79.20;;;;;;4993917;28;20050;-79
2021/12/19 11:49:24;;;;;;;11.50;10.67;;;6.90;79.10;;;;;;5015459;28;20041;-79
2021/12/19 11:52:25;;;;;;;10.40;9.87;;;6.90;79.00;;;;;;4983441;28;20038;-77
2021/12/19 11:55:13;;;;;;;9.75;8.93;;;7.00;79.00;;;;;;5006390;28;20044;-77
2021/12/19 11:57:44;;;;;;;13.17;12.13;;;7.00;79.00;;;;;;5000778;28;20030;-78
2021/12/19 12:00:31;;;;;;;16.58;15.75;;;7.00;79.70;;;;;;4994502;28;20097;-79
2021/12/19 12:03:12;;;;;;;9.50;9.10;;;7.00;78.90;;;;;;4995963;28;20014;-78
2021/12/19 12:05:38;;;;;;;;;;;7.10;78.80;;;;;;4997711;28;20038;-78
2021/12/19 12:08:05;;;;;;;13.20;10.13;;;7.10;78.80;;;;;;5006842;28;19920;-78
2021/12/19 12:10:53;;;;;;;12.40;11.80;;;7.10;78.60;;;;;;5006946;28;20044;-78
2021/12/19 12:13:29;;;;;;;13.20;12.27;;;7.00;78.60;;;;;;5004752;28;20507;-79
2021/12/19 12:16:05;;;;;;;19.70;12.67;;;7.00;78.70;;;;;;4999073;28;20034;-79
2021/12/19 12:18:36;;;;;;;9.63;9.23;;;7.00;78.70;;;;;;5010491;28;20026;-79
2021/12/19 12:21:18;;;;;;;9.77;9.32;;;7.10;78.70;;;;;;4993387;28;20022;-79
2021/12/19 12:23:59;;;;;;;17.40;16.60;;;7.10;79.40;;;;;;4996288;28;20030;-77
2021/12/19 12:26:28;;;;;;;10.50;9.90;;;7.00;78.50;;;;;;4992321;28;20049;-79
2021/12/19 12:28:55;;;;;;;10.07;9.57;;;7.00;78.50;;;;;;5021166;28;20045;-79
2021/12/19 12:31:27;;;;;;;11.30;10.80;;;7.00;78.50;;;;;;4995201;28;20034;-79
2021/12/19 12:33:53;;;;;;;10.10;9.60;;;7.10;78.50;;;;;;4991457;28;20042;-79
2021/12/19 12:36:20;;;;;;;13.37;12.73;;;7.00;78.20;;;;;;5008939;28;20030;-79
2021/12/19 12:38:50;;;;;;;12.10;11.50;;;7.10;78.20;;;;;;4994839;28;20033;-79
2021/12/19 12:42:10;;;;;;;11.13;10.63;;;7.00;78.00;;;;;;5009011;28;20037;-79
2021/12/19 12:44:14;;;;;;;10.70;10.20;;;7.00;78.00;;;;;;5004639;28;20050;-79
2021/12/19 12:46:41;;;;;;;10.83;10.33;;;7.00;77.90;;;;;;5006098;28;20054;-79
2021/12/19 12:49:08;;;;;;;13.40;12.70;;;7.10;78.00;;;;;;4990328;28;20484;-79
2021/12/19 12:51:45;;;;;;;11.23;10.73;;;7.10;77.90;;;;;;4997606;28;20046;-79
2021/12/19 12:54:24;;;;;;;10.40;9.90;;;7.20;77.80;;;;;;5005253;28;20045;-79
2021/12/19 12:56:55;;;;;;;13.37;12.67;;;7.20;77.80;;;;;;5025280;28;20057;-79
2021/12/19 12:59:32;;;;;;;9.87;9.37;;;7.20;77.80;;;;;;4995597;28;20049;-79
2021/12/19 13:02:20;;;;;;;9.87;9.47;;;7.20;77.70;;;;;;4991935;28;20282;-79
2021/12/19 13:04:48;;;;;;;12.40;11.67;;;7.20;77.60;;;;;;5004296;28;20487;-79
2021/12/19 13:07:15;;;;;;;9.13;8.73;;;7.30;77.50;;;;;;5004555;28;20036;-79
2021/12/19 13:09:58;;;;;;;10.27;9.77;;;7.20;77.30;;;;;;5007828;28;20399;-79
2021/12/19 13:12:41;;;;;;;8.90;8.50;;;7.20;77.30;;;;;;4997517;28;20034;-79
2021/12/19 13:15:12;;;;;;;8.60;8.20;;;7.20;77.30;;;;;;4994726;28;20029;-79
2021/12/19 13:17:42;;;;;;;11.90;11.38;;;7.20;77.30;;;;;;5023230;28;20025;-79
2021/12/19 13:20:12;;;;;;;9.57;9.10;;;7.20;77.40;;;;;;5020633;28;20034;-79
2021/12/19 13:22:39;;;;;;;8.93;8.53;;;7.30;77.40;;;;;;5005897;28;20284;-79
2021/12/19 13:25:13;;;;;;;9.00;8.60;;;7.30;77.40;;;;;;5005534;28;20030;-79
2021/12/19 13:27:41;;;;;;;9.27;8.87;;;7.30;77.20;;;;;;5006815;28;20022;-80
2021/12/19 13:30:13;;;;;;;8.77;8.37;;;7.30;77.30;;;;;;4994296;28;20044;-79
2021/12/19 13:33:03;;;;;;;9.20;8.70;;;7.20;77.10;;;;;;4992670;28;20479;-79
2021/12/19 13:35:42;;;;;;;8.80;8.40;;;7.30;77.30;;;;;;4994572;28;20030;-79
2021/12/19 13:38:10;;;;;;;9.80;9.37;;;7.30;77.30;;;;;;5013366;28;20033;-79
2021/12/19 13:40:40;;;;;;;8.77;8.37;;;7.30;77.50;;;;;;5003569;28;20033;-79
2021/12/19 13:43:13;;;;;;;9.27;8.70;;;7.40;77.30;;;;;;5003102;28;20026;-79
2021/12/19 13:45:43;;;;;;;9.37;8.87;;;7.40;77.20;;;;;;4984877;28;20030;-79
2021/12/19 13:48:20;;;;;;;9.07;8.68;;;7.40;77.10;;;;;;5001495;28;20041;-79
2021/12/19 13:50:53;;;;;;;14.20;13.50;;;7.40;77.20;;;;;;4997251;28;20494;-79
2021/12/19 13:53:19;;;;;;;9.63;9.13;;;7.30;77.10;;;;;;4993696;28;20046;-79
2021/12/19 13:55:48;;;;;;;8.77;8.37;;;7.30;77.10;;;;;;5008751;28;20033;-79
2021/12/19 13:58:15;;;;;;;9.40;9.00;;;7.30;77.10;;;;;;5008123;28;20033;-79
2021/12/19 14:00:43;;;;;;;9.57;9.07;;;7.30;77.20;;;;;;5012047;28;20399;-79
2021/12/19 14:03:09;;;;;;;8.57;8.17;;;7.30;77.20;;;;;;4995692;28;20398;-79
2021/12/19 14:05:38;;;;;;;10.17;9.67;;;7.30;77.30;;;;;;4995585;28;20050;-79
2021/12/19 14:08:17;;;;;;;8.83;8.43;;;7.30;77.30;;;;;;5009731;28;20029;-80
2021/12/19 14:10:43;;;;;;;9.37;8.97;;;7.30;77.30;;;;;;5009258;28;20060;-81
2021/12/19 14:13:15;;;;;;;8.93;8.53;;;7.30;77.20;;;;;;5004130;28;20042;-81